createdAt,value
2023-02-02T00:02:04.495Z,7.22
2023-02-02T00:04:36.337Z,7.25
2023-02-02T00:07:05.651Z,7.20
2023-02-02T00:09:34.137Z,7.19
2023-02-02T00:12:02.914Z,7.46
2023-02-02T00:14:31.304Z,7.07
2023-02-02T00:17:00.594Z,7.05
2023-02-02T00:19:31.603Z,7.19
2023-02-02T00:21:59.568Z,7.31
2023-02-02T00:24:27.464Z,7.47
2023-02-02T00:26:57.420Z,7.33
2023-02-02T00:29:26.896Z,7.55
2023-02-02T00:31:54.990Z,7.39
2023-02-02T00:34:25.205Z,7.69
2023-02-02T00:36:53.533Z,7.49
2023-02-02T00:39:26.455Z,7.82
2023-02-02T00:41:55.790Z,7.50
2023-02-02T00:44:41.412Z,7.59
2023-02-02T00:47:09.322Z,7.46
2023-02-02T00:49:39.420Z,7.68
2023-02-02T00:52:07.359Z,7.84
2023-02-02T00:54:35.288Z,7.73
2023-02-02T00:57:03.721Z,7.43
2023-02-02T00:59:32.490Z,7.54
2023-02-02T01:02:02.084Z,7.42
2023-02-02T01:04:30.379Z,7.63
2023-02-02T01:06:59.852Z,7.58
2023-02-02T01:09:27.851Z,7.47
2023-02-02T01:11:55.922Z,7.41
2023-02-02T01:14:24.197Z,7.53
2023-02-02T01:16:52.091Z,7.59
2023-02-02T01:19:20.039Z,7.43
2023-02-02T01:21:47.933Z,7.50
2023-02-02T01:24:17.204Z,7.42
2023-02-02T01:26:45.153Z,7.60
2023-02-02T01:29:13.246Z,7.26
2023-02-02T01:31:42.211Z,6.76
2023-02-02T01:34:11.426Z,7.36
2023-02-02T01:36:39.341Z,7.53
2023-02-02T01:39:07.220Z,7.33
2023-02-02T01:41:36.542Z,7.52
2023-02-02T01:44:06.218Z,7.71
2023-02-02T01:46:36.105Z,7.55
2023-02-02T01:49:09.100Z,7.60
2023-02-02T01:51:42.984Z,7.51
2023-02-02T01:54:15.953Z,7.63
2023-02-02T01:56:54.884Z,7.29
2023-02-02T01:59:23.661Z,7.44
2023-02-02T02:01:54.883Z,7.25
2023-02-02T02:04:25.156Z,7.44
2023-02-02T02:06:54.217Z,7.48
2023-02-02T02:09:22.504Z,7.55
2023-02-02T02:11:54.205Z,7.38
2023-02-02T02:14:41.195Z,7.65
2023-02-02T02:17:20.205Z,7.62
2023-02-02T02:20:51.246Z,7.38
2023-02-02T02:24:17.160Z,7.49
2023-02-02T02:26:58.556Z,7.66
2023-02-02T02:30:10.715Z,7.77
2023-02-02T02:32:46.665Z,7.49
2023-02-02T02:35:24.593Z,7.74
2023-02-02T02:37:59.590Z,7.80
2023-02-02T02:40:35.397Z,7.73
2023-02-02T02:43:08.970Z,7.87
2023-02-02T02:45:39.777Z,7.55
2023-02-02T02:48:11.399Z,7.67
2023-02-02T02:50:39.709Z,7.84
2023-02-02T02:53:14.290Z,7.61
2023-02-02T02:55:50.373Z,7.86
2023-02-02T02:58:25.182Z,7.74
2023-02-02T03:01:04.438Z,7.50
2023-02-02T03:03:49.244Z,7.59
2023-02-02T03:06:24.362Z,7.68
2023-02-02T03:08:57.258Z,7.60
2023-02-02T03:11:25.202Z,7.71
2023-02-02T03:13:53.322Z,7.59
2023-02-02T03:16:21.163Z,7.66
2023-02-02T03:18:50.489Z,7.97
2023-02-02T03:21:18.347Z,7.85
2023-02-02T03:23:46.206Z,8.01
2023-02-02T03:26:14.108Z,7.87
2023-02-02T03:28:42.736Z,7.74
2023-02-02T03:31:10.928Z,7.78
2023-02-02T03:33:39.594Z,7.51
2023-02-02T03:36:09.725Z,7.76
2023-02-02T03:38:37.662Z,7.95
2023-02-02T03:41:06.572Z,7.94
2023-02-02T03:43:34.410Z,7.92
2023-02-02T03:46:05.232Z,8.01
2023-02-02T03:48:36.157Z,7.93
2023-02-02T03:51:08.677Z,7.90
2023-02-02T03:53:36.586Z,7.77
2023-02-02T03:56:05.158Z,7.69
2023-02-02T03:58:33.085Z,7.67
2023-02-02T04:01:04.143Z,7.67
2023-02-02T04:03:32.147Z,7.70
2023-02-02T04:06:00.108Z,7.81
2023-02-02T04:08:30.247Z,7.59
2023-02-02T04:10:59.540Z,7.56
2023-02-02T04:13:27.509Z,7.86
2023-02-02T04:15:59.537Z,7.78
2023-02-02T04:18:27.870Z,7.99
2023-02-02T04:20:59.420Z,8.10
2023-02-02T04:23:29.763Z,8.03
2023-02-02T04:25:58.573Z,7.97
2023-02-02T04:28:27.405Z,8.20
2023-02-02T04:30:56.382Z,7.71
2023-02-02T04:33:26.442Z,8.04
2023-02-02T04:35:54.350Z,8.07
2023-02-02T04:38:22.314Z,8.28
2023-02-02T04:40:51.639Z,8.01
2023-02-02T04:43:19.576Z,7.81
2023-02-02T04:45:47.526Z,7.98
2023-02-02T04:48:15.364Z,8.00
2023-02-02T04:50:43.184Z,7.96
2023-02-02T04:53:11.063Z,7.86
2023-02-02T04:55:39.137Z,8.01
2023-02-02T04:58:08.427Z,8.11
2023-02-02T05:00:36.295Z,8.03
2023-02-02T05:03:04.256Z,8.21
2023-02-02T05:05:32.118Z,8.20
2023-02-02T05:07:59.989Z,7.75
2023-02-02T05:10:27.864Z,8.01
2023-02-02T05:12:56.307Z,8.05
2023-02-02T05:15:25.874Z,8.05
2023-02-02T05:17:53.888Z,7.92
2023-02-02T05:20:21.748Z,8.06
2023-02-02T05:22:50.087Z,8.06
2023-02-02T05:25:18.548Z,7.92
2023-02-02T05:27:47.287Z,7.77
2023-02-02T05:30:15.956Z,7.52
2023-02-02T05:32:45.189Z,8.02
2023-02-02T05:35:13.075Z,7.78
2023-02-02T05:37:43.111Z,7.81
2023-02-02T05:40:12.127Z,8.11
2023-02-02T05:42:40.039Z,8.00
2023-02-02T05:45:08.687Z,7.77
2023-02-02T05:47:36.637Z,8.12
2023-02-02T05:50:06.455Z,7.95
2023-02-02T05:52:36.645Z,8.08
2023-02-02T05:55:05.216Z,7.85
2023-02-02T05:57:33.884Z,7.75
2023-02-02T06:00:01.826Z,7.73
2023-02-02T06:02:39.971Z,8.03
2023-02-02T06:05:10.013Z,7.99
2023-02-02T06:07:37.937Z,7.93
2023-02-02T06:10:06.528Z,7.61
2023-02-02T06:12:34.405Z,7.82
2023-02-02T06:15:02.359Z,8.02
2023-02-02T06:17:30.330Z,8.00
2023-02-02T06:19:58.196Z,8.08
2023-02-02T06:22:27.489Z,7.70
2023-02-02T06:24:55.385Z,8.00
2023-02-02T06:27:23.476Z,8.00
2023-02-02T06:29:51.537Z,8.12
2023-02-02T06:32:19.426Z,8.16
2023-02-02T06:34:47.390Z,8.28
2023-02-02T06:37:15.279Z,8.04
2023-02-02T06:39:44.489Z,8.15
2023-02-02T06:42:21.408Z,8.33
2023-02-02T06:44:49.895Z,7.74
2023-02-02T06:47:17.953Z,7.70
2023-02-02T06:49:45.797Z,8.09
2023-02-02T06:52:13.627Z,8.09
2023-02-02T06:54:41.597Z,7.77
2023-02-02T06:57:11.009Z,7.76
2023-02-02T06:59:40.974Z,8.10
2023-02-02T07:02:12.172Z,7.79
2023-02-02T07:04:40.088Z,7.71
2023-02-02T07:07:07.956Z,7.80
2023-02-02T07:09:36.336Z,8.03
2023-02-02T07:12:04.378Z,8.08
2023-02-02T07:14:33.695Z,8.14
2023-02-02T07:17:01.644Z,8.01
2023-02-02T07:19:29.766Z,7.95
2023-02-02T07:21:57.720Z,8.14
2023-02-02T07:24:25.589Z,8.18
2023-02-02T07:26:53.534Z,7.89
2023-02-02T07:29:21.667Z,8.24
2023-02-02T07:31:51.080Z,8.40
2023-02-02T07:34:19.243Z,8.44
2023-02-02T07:36:47.139Z,8.23
2023-02-02T07:39:15.352Z,7.72
2023-02-02T07:41:43.896Z,7.96
2023-02-02T07:44:24.457Z,8.14
2023-02-02T07:46:54.258Z,8.20
2023-02-02T07:49:22.171Z,8.23
2023-02-02T07:51:50.125Z,8.09
2023-02-02T07:54:18.071Z,8.18
2023-02-02T07:56:46.028Z,8.15
2023-02-02T07:59:14.267Z,8.05
2023-02-02T08:01:42.217Z,8.49
2023-02-02T08:04:11.670Z,8.51
2023-02-02T08:06:41.320Z,8.39
2023-02-02T08:09:10.761Z,8.29
2023-02-02T08:11:39.833Z,8.23
2023-02-02T08:14:08.348Z,8.64
2023-02-02T08:16:36.268Z,8.72
2023-02-02T08:19:04.530Z,8.26
2023-02-02T08:21:35.357Z,8.31
2023-02-02T08:24:05.173Z,7.85
2023-02-02T08:26:33.377Z,8.14
2023-02-02T08:29:03.039Z,8.43
2023-02-02T08:31:32.997Z,8.41
2023-02-02T08:34:01.000Z,8.46
2023-02-02T08:36:30.734Z,8.82
2023-02-02T08:39:03.392Z,8.51
2023-02-02T08:41:31.599Z,8.29
2023-02-02T08:43:59.763Z,8.26
2023-02-02T08:46:28.030Z,8.14
2023-02-02T08:48:55.936Z,8.38
2023-02-02T08:51:23.854Z,8.54
2023-02-02T08:53:51.753Z,8.79
2023-02-02T08:56:22.947Z,8.80
2023-02-02T08:58:52.949Z,8.77
2023-02-02T09:01:22.675Z,8.84
2023-02-02T09:03:54.630Z,9.06
2023-02-02T09:06:23.620Z,9.04
2023-02-02T09:08:51.494Z,9.18
2023-02-02T09:11:21.763Z,8.85
2023-02-02T09:13:50.863Z,8.90
2023-02-02T09:16:20.039Z,9.09
2023-02-02T09:18:48.155Z,9.14
2023-02-02T09:21:17.574Z,9.01
2023-02-02T09:23:46.696Z,9.40
2023-02-02T09:26:17.802Z,9.44
2023-02-02T09:28:49.145Z,9.63
2023-02-02T09:31:17.540Z,9.68
2023-02-02T09:33:45.939Z,9.26
2023-02-02T09:36:15.790Z,9.46
2023-02-02T09:38:44.899Z,9.41
2023-02-02T09:41:43.294Z,9.38
2023-02-02T09:44:24.215Z,9.15
2023-02-02T09:47:04.440Z,9.24
2023-02-02T09:49:38.474Z,9.46
2023-02-02T09:52:14.867Z,9.64
2023-02-02T09:54:45.920Z,9.50
2023-02-02T09:57:19.141Z,9.63
2023-02-02T09:59:51.989Z,9.65
2023-02-02T10:02:23.530Z,9.87
2023-02-02T10:04:53.655Z,9.53
2023-02-02T10:07:27.703Z,9.64
2023-02-02T10:10:00.680Z,9.83
2023-02-02T10:12:37.179Z,9.84
2023-02-02T10:15:17.742Z,9.82
2023-02-02T10:17:50.729Z,9.55
2023-02-02T10:20:39.818Z,9.90
2023-02-02T10:23:22.894Z,10.11
2023-02-02T10:25:57.672Z,9.65
2023-02-02T10:28:43.460Z,9.64
2023-02-02T10:31:23.360Z,9.39
2023-02-02T10:34:03.628Z,9.93
2023-02-02T10:36:41.040Z,9.74
2023-02-02T10:39:18.347Z,10.02
2023-02-02T10:41:53.021Z,10.76
2023-02-02T10:44:31.549Z,10.88
2023-02-02T10:47:04.953Z,11.45
2023-02-02T10:49:35.417Z,10.78
2023-02-02T10:52:15.758Z,10.59
2023-02-02T10:54:57.636Z,10.71
2023-02-02T10:57:35.676Z,10.96
2023-02-02T11:00:12.198Z,10.51
2023-02-02T11:02:41.454Z,10.35
2023-02-02T11:05:34.324Z,10.07
2023-02-02T11:08:02.804Z,10.41
2023-02-02T11:10:33.412Z,10.57
2023-02-02T11:13:02.730Z,9.99
2023-02-02T11:15:32.012Z,10.37
2023-02-02T11:18:15.888Z,10.59
2023-02-02T11:20:46.532Z,10.73
2023-02-02T11:23:20.200Z,10.55
2023-02-02T11:25:58.940Z,10.27
2023-02-02T11:28:30.428Z,10.81
2023-02-02T11:30:59.305Z,10.93
2023-02-02T11:33:31.717Z,11.21
2023-02-02T11:36:01.865Z,10.93
2023-02-02T11:38:32.033Z,11.64
2023-02-02T11:41:03.864Z,10.96
2023-02-02T11:43:40.863Z,11.49
2023-02-02T11:46:19.826Z,11.23
2023-02-02T11:48:59.662Z,10.97
2023-02-02T11:51:29.622Z,10.98
2023-02-02T11:54:06.196Z,10.97
2023-02-02T11:56:35.609Z,10.88
2023-02-02T11:59:04.183Z,11.21
2023-02-02T12:01:35.537Z,10.98
2023-02-02T12:04:24.433Z,10.63
2023-02-02T12:06:52.348Z,10.65
2023-02-02T12:09:23.266Z,10.41
2023-02-02T12:12:02.301Z,10.45
2023-02-02T12:14:38.451Z,10.12
2023-02-02T12:17:20.799Z,9.70
2023-02-02T12:20:13.794Z,9.62
2023-02-02T12:23:08.552Z,9.32
2023-02-02T12:25:54.919Z,9.21
2023-02-02T12:28:39.692Z,8.37
2023-02-02T12:31:16.373Z,8.76
2023-02-02T12:33:52.271Z,9.67
2023-02-02T12:36:37.347Z,10.14
2023-02-02T12:39:21.153Z,10.49
2023-02-02T12:42:18.413Z,10.44
2023-02-02T12:44:57.452Z,10.64
2023-02-02T12:47:29.023Z,10.31
2023-02-02T12:50:09.862Z,9.98
2023-02-02T12:52:53.716Z,10.18
2023-02-02T12:55:27.716Z,10.30
2023-02-02T12:58:07.540Z,10.07
2023-02-02T13:00:52.029Z,10.25
2023-02-02T13:03:29.581Z,10.40
2023-02-02T13:06:10.628Z,10.25
2023-02-02T13:08:48.672Z,10.37
2023-02-02T13:11:32.832Z,10.00
2023-02-02T13:14:06.683Z,10.18
2023-02-02T13:16:38.110Z,10.20
2023-02-02T13:19:09.321Z,9.93
2023-02-02T13:21:39.646Z,10.00
2023-02-02T13:24:16.542Z,9.95
2023-02-02T13:26:48.630Z,10.07
2023-02-02T13:29:33.398Z,10.22
2023-02-02T13:32:05.848Z,10.13
2023-02-02T13:34:42.444Z,9.85
2023-02-02T13:37:18.735Z,10.23
2023-02-02T13:39:57.452Z,10.14
2023-02-02T13:42:38.193Z,10.35
2023-02-02T13:45:22.966Z,10.08
2023-02-02T13:47:57.334Z,10.28
2023-02-02T13:50:30.415Z,10.08
2023-02-02T13:53:14.392Z,9.76
2023-02-02T13:56:06.649Z,10.14
2023-02-02T13:58:51.818Z,10.08
2023-02-02T14:01:20.873Z,9.81
2023-02-02T14:03:54.391Z,9.82
2023-02-02T14:06:24.408Z,9.76
2023-02-02T14:08:55.437Z,9.61
2023-02-02T14:11:29.201Z,9.46
2023-02-02T14:14:19.383Z,9.89
2023-02-02T14:16:50.479Z,9.87
2023-02-02T14:19:44.050Z,9.77
2023-02-02T14:22:39.028Z,9.61
2023-02-02T14:25:41.573Z,9.72
2023-02-02T14:28:12.452Z,9.89
2023-02-02T14:30:41.288Z,9.61
2023-02-02T14:33:39.939Z,9.19
2023-02-02T14:36:15.181Z,9.48
2023-02-02T14:38:59.246Z,9.55
2023-02-02T14:42:12.746Z,9.24
2023-02-02T14:45:17.095Z,9.63
2023-02-02T14:47:51.040Z,9.60
2023-02-02T14:50:24.397Z,9.09
2023-02-02T14:53:03.450Z,9.23
2023-02-02T14:55:33.343Z,9.22
2023-02-02T14:58:03.608Z,9.19
2023-02-02T15:00:33.989Z,9.13
2023-02-02T15:03:48.245Z,9.25
2023-02-02T15:06:32.934Z,9.09
2023-02-02T15:09:36.770Z,9.08
2023-02-02T15:12:43.568Z,8.82
2023-02-02T15:15:18.428Z,9.07
2023-02-02T15:17:55.897Z,9.02
2023-02-02T15:20:30.364Z,8.88
2023-02-02T15:23:01.952Z,8.86
2023-02-02T15:25:35.315Z,8.84
2023-02-02T15:28:08.849Z,8.83
2023-02-02T15:30:41.092Z,8.72
2023-02-02T15:33:21.716Z,8.87
2023-02-02T15:35:50.170Z,8.61
2023-02-02T15:38:20.972Z,8.15
2023-02-02T15:40:49.758Z,8.20
2023-02-02T15:43:19.501Z,8.34
2023-02-02T15:45:50.673Z,8.50
2023-02-02T15:48:22.488Z,8.54
2023-02-02T15:50:54.656Z,8.18
2023-02-02T15:53:25.665Z,8.27
2023-02-02T15:55:54.465Z,8.03
2023-02-02T15:58:32.693Z,8.37
2023-02-02T16:01:04.269Z,8.13
2023-02-02T16:03:39.560Z,8.22
2023-02-02T16:06:08.980Z,8.27
2023-02-02T16:08:39.998Z,8.12
2023-02-02T16:11:11.304Z,8.01
2023-02-02T16:13:42.269Z,8.20
2023-02-02T16:16:23.897Z,7.92
2023-02-02T16:19:03.344Z,7.94
2023-02-02T16:21:32.557Z,8.06
2023-02-02T16:24:01.687Z,7.91
2023-02-02T16:26:32.638Z,7.93
2023-02-02T16:29:02.564Z,7.69
2023-02-02T16:31:31.457Z,7.63
2023-02-02T16:34:02.414Z,7.78
2023-02-02T16:36:31.122Z,7.87
2023-02-02T16:39:01.348Z,7.74
2023-02-02T16:41:34.724Z,7.54
2023-02-02T16:44:38.602Z,7.83
2023-02-02T16:47:08.429Z,7.79
2023-02-02T16:49:37.720Z,7.65
2023-02-02T16:52:15.305Z,7.70
2023-02-02T16:54:51.088Z,7.78
2023-02-02T16:57:22.659Z,7.55
2023-02-02T16:59:54.771Z,7.58
2023-02-02T17:02:29.762Z,7.72
2023-02-02T17:05:01.843Z,7.41
2023-02-02T17:07:31.068Z,7.70
2023-02-02T17:10:21.378Z,7.63
2023-02-02T17:12:49.581Z,7.60
2023-02-02T17:15:34.400Z,7.65
2023-02-02T17:18:03.276Z,7.58
2023-02-02T17:20:32.509Z,7.50
2023-02-02T17:23:03.575Z,7.44
2023-02-02T17:25:37.030Z,7.54
2023-02-02T17:28:08.568Z,7.44
2023-02-02T17:30:40.482Z,7.41
2023-02-02T17:33:14.672Z,7.37
2023-02-02T17:35:53.873Z,7.22
2023-02-02T17:38:23.021Z,7.23
2023-02-02T17:40:51.836Z,7.09
2023-02-02T17:43:19.832Z,7.07
2023-02-02T17:45:49.222Z,6.92
2023-02-02T17:48:17.362Z,7.02
2023-02-02T17:50:47.069Z,6.91
2023-02-02T17:53:16.532Z,6.88
2023-02-02T17:55:45.676Z,6.94
2023-02-02T17:58:17.216Z,7.00
2023-02-02T18:00:46.492Z,6.96
2023-02-02T18:03:21.008Z,6.97
2023-02-02T18:05:49.333Z,6.97
2023-02-02T18:08:17.622Z,6.94
2023-02-02T18:10:45.739Z,6.95
2023-02-02T18:13:15.924Z,7.00
2023-02-02T18:15:44.736Z,6.96
2023-02-02T18:18:12.913Z,6.99
2023-02-02T18:20:43.887Z,6.97
2023-02-02T18:23:11.833Z,6.83
2023-02-02T18:25:40.569Z,6.82
2023-02-02T18:28:09.521Z,6.77
2023-02-02T18:30:39.219Z,6.85
2023-02-02T18:33:08.706Z,6.87
2023-02-02T18:35:36.729Z,6.85
2023-02-02T18:38:05.979Z,6.71
2023-02-02T18:40:33.898Z,6.68
2023-02-02T18:43:01.894Z,6.74
2023-02-02T18:45:29.914Z,6.73
2023-02-02T18:47:58.183Z,6.70
2023-02-02T18:50:26.083Z,6.66
2023-02-02T18:52:54.208Z,6.80
2023-02-02T18:55:23.636Z,6.74
2023-02-02T18:57:51.692Z,6.73
2023-02-02T19:00:22.012Z,6.70
2023-02-02T19:02:49.976Z,6.53
2023-02-02T19:05:35.980Z,6.43
2023-02-02T19:08:05.815Z,6.46
2023-02-02T19:10:35.142Z,6.56
2023-02-02T19:13:13.351Z,6.60
2023-02-02T19:15:42.433Z,6.55
2023-02-02T19:18:15.054Z,6.55
2023-02-02T19:20:43.632Z,6.46
2023-02-02T19:23:13.533Z,6.49
2023-02-02T19:25:46.275Z,6.40
2023-02-02T19:28:22.602Z,6.51
2023-02-02T19:30:51.711Z,6.41
2023-02-02T19:33:20.039Z,6.43
2023-02-02T19:35:51.671Z,6.36
2023-02-02T19:38:30.500Z,6.33
2023-02-02T19:41:02.307Z,6.27
2023-02-02T19:43:33.119Z,6.35
2023-02-02T19:46:01.404Z,6.31
2023-02-02T19:48:35.535Z,6.32
2023-02-02T19:51:38.431Z,6.46
2023-02-02T19:54:18.229Z,6.42
2023-02-02T19:56:47.538Z,6.42
2023-02-02T19:59:19.465Z,6.46
2023-02-02T20:01:50.570Z,6.53
2023-02-02T20:04:20.006Z,6.48
2023-02-02T20:06:58.498Z,6.44
2023-02-02T20:09:34.544Z,6.53
2023-02-02T20:12:18.880Z,6.46
2023-02-02T20:14:48.859Z,6.50
2023-02-02T20:17:23.918Z,6.40
2023-02-02T20:19:51.859Z,6.47
2023-02-02T20:22:25.807Z,6.63
2023-02-02T20:24:54.807Z,6.53
2023-02-02T20:27:26.726Z,6.56
2023-02-02T20:29:56.532Z,6.53
2023-02-02T20:32:30.078Z,6.51
2023-02-02T20:34:59.706Z,6.60
2023-02-02T20:37:30.111Z,6.54
2023-02-02T20:40:01.130Z,6.65
2023-02-02T20:42:31.193Z,6.65
2023-02-02T20:44:59.143Z,6.69
2023-02-02T20:47:27.017Z,6.76
2023-02-02T20:49:57.311Z,6.74
2023-02-02T20:52:26.282Z,6.72
2023-02-02T20:54:54.233Z,6.63
2023-02-02T20:57:22.120Z,6.45
2023-02-02T20:59:57.400Z,6.58
2023-02-02T21:02:26.500Z,6.58
2023-02-02T21:04:54.736Z,6.58
2023-02-02T21:07:22.889Z,6.58
2023-02-02T21:09:52.157Z,6.48
2023-02-02T21:12:22.306Z,6.41
2023-02-02T21:14:51.761Z,6.36
2023-02-02T21:17:19.709Z,6.25
2023-02-02T21:19:48.089Z,6.36
2023-02-02T21:22:16.196Z,6.25
2023-02-02T21:24:44.094Z,6.24
2023-02-02T21:27:12.045Z,6.27
2023-02-02T21:29:40.138Z,6.28
2023-02-02T21:32:09.406Z,6.26
2023-02-02T21:34:38.109Z,6.23
2023-02-02T21:37:14.084Z,6.37
2023-02-02T21:39:48.210Z,6.31
2023-02-02T21:42:17.973Z,6.19
2023-02-02T21:44:49.742Z,6.33
2023-02-02T21:47:36.121Z,6.34
2023-02-02T21:50:15.489Z,6.24
2023-02-02T21:52:43.757Z,6.19
2023-02-02T21:55:33.408Z,6.23
2023-02-02T21:58:12.108Z,6.20
2023-02-02T22:00:40.054Z,6.12
2023-02-02T22:03:25.937Z,6.19
2023-02-02T22:06:00.533Z,6.33
2023-02-02T22:08:28.497Z,6.37
2023-02-02T22:10:56.341Z,6.36
2023-02-02T22:13:26.595Z,6.40
2023-02-02T22:15:54.570Z,6.44
2023-02-02T22:18:26.131Z,6.36
2023-02-02T22:20:56.489Z,6.35
2023-02-02T22:23:26.385Z,6.34
2023-02-02T22:25:57.781Z,6.35
2023-02-02T22:28:28.272Z,6.37
2023-02-02T22:30:58.542Z,6.33
2023-02-02T22:33:28.019Z,6.36
2023-02-02T22:35:55.976Z,6.40
2023-02-02T22:38:25.484Z,6.36
2023-02-02T22:40:54.342Z,6.40
2023-02-02T22:43:22.775Z,6.31
2023-02-02T22:45:50.836Z,6.55
2023-02-02T22:48:18.840Z,6.56
2023-02-02T22:50:48.164Z,6.49
2023-02-02T22:53:16.017Z,6.51
2023-02-02T22:55:44.314Z,6.55
2023-02-02T22:58:12.259Z,6.51
2023-02-02T23:00:40.182Z,6.53
2023-02-02T23:03:08.126Z,6.60
2023-02-02T23:05:35.983Z,6.66
2023-02-02T23:08:05.565Z,6.64
2023-02-02T23:10:35.826Z,6.60
2023-02-02T23:13:05.860Z,6.66
2023-02-02T23:15:33.789Z,6.68
2023-02-02T23:18:02.147Z,6.67
2023-02-02T23:20:30.171Z,6.65
2023-02-02T23:22:57.989Z,6.58
2023-02-02T23:25:27.241Z,6.62
2023-02-02T23:27:55.209Z,6.76
2023-02-02T23:30:24.642Z,6.68
2023-02-02T23:32:53.049Z,6.77
2023-02-02T23:35:20.952Z,6.68
2023-02-02T23:37:48.941Z,6.64
2023-02-02T23:40:17.091Z,6.53
2023-02-02T23:42:46.389Z,6.60
2023-02-02T23:45:16.283Z,6.72
2023-02-02T23:47:44.715Z,6.62
2023-02-02T23:50:13.352Z,6.85
2023-02-02T23:52:41.575Z,6.64
2023-02-02T23:55:11.106Z,6.91
2023-02-02T23:57:39.453Z,6.80
